Boutte, LA (70039)

6:14 PM CST on March 02, 2015 (GMT -0600)
Kirk Street | Change Station
CLOSE
Current Station
Personal Weather Station
Location: Paradis, LA
Elevation: 10 ft
Nearby Weather Stations
Active Advisory: Dense Fog Advisory

Elev 10 ft 29.88 °N, 90.43 °W | Updated 4 seconds ago

Overcast
Overcast
73.9 °F
Feels Like 75 °F
N
2.3
Wind Variable Wind from North
Gusts 2.6 mph

Today
High -- | Low -- °F
--% Chance of Precip.
Yesterday
High -- | Low -- °F
Precip. -- in
6:26 AM 6:01 PM
Waxing Gibbous, 93% visible
Pressure 30.19 in
Visibility 6.0 miles
Clouds Mostly Cloudy 2100 ft
Mostly Cloudy 3100 ft
Overcast 3800 ft
Heat Index 75 °F
Dew Point 65 °F
Humidity 73%
Rainfall 1.78 in
Snow Depth Not available.
UV 0 out of 12
Pollen 7.80 out of 12
Air Quality Not available.
Flu Activity Not available.
METAR KMSY 022353Z 10006KT 6SM BR BKN021 BKN031 OVC038 22/19 A3018 RMK AO2 RAB2255E29 SLP222 P0000 60001 T02170194 10244 20211 55004 $

More Conditions Fewer Conditions

Pressure 30.19 in
Visibility 6.0 miles
Clouds Mostly Cloudy 2100 ft
Mostly Cloudy 3100 ft
Overcast 3800 ft
Heat Index 75 °F
Dew Point 65 °F
Humidity 73%
Rainfall 1.78 in
Snow Depth Not available.
UV 0 out of 12
Pollen 7.80 out of 12
Air Quality Not available.
Flu Activity Not available.
METAR KMSY 022353Z 10006KT 6SM BR BKN021 BKN031 OVC038 22/19 A3018 RMK AO2 RAB2255E29 SLP222 P0000 60001 T02170194 10244 20211 55004 $

More Conditions Fewer Conditions

10-Day Weather Forecast

Almanac

Astronomy

Mar. 02, 2015 Rise Set
Actual Time
Civil Twilight
Nautical Twilight
Astronomical Twilight
Moon
Length of Visible Light
Length of Day
Tomorrow will be .
, % of the Moon is Illuminated

Today's Extremes

State Highs State Lows

Community

WunderPhotos

Upload Photos

1,802,005 photos uploaded!

WunderBlogs® & News

Nearby

Air Quality

  Air Quality AQ Index Pollutant
Not available.

Snow Depth

Station Depth Elevation

Earthquake Activity

City Distance Mag. Time & Date
Minimum magnitude displayed is 2.5.

Coastal Water Temperatures

Place Temperature

Nearby Weather Stations

Dense Fog Advisory
Statement as of 3:20 PM CST on March 02, 2015

... Dense fog advisory in effect from 9 PM this evening to 9 am
CST Tuesday...

The National Weather Service in New Orleans has issued a dense
fog advisory... which is in effect from 9 PM this evening to 9 am
CST Tuesday.

* Visibility... one quarter mile or less.

* Duration... tonight through mid morning Tuesday

* impacts... reduced visibilities on area roadways could cause
hazardous driving conditions through Tuesday morning.

Precautionary/preparedness actions...

A dense fog advisory means visibilities will frequently be
reduced to less than one quarter mile. If driving... slow down...
use your headlights... and leave plenty of distance ahead of you.



Dm/mjh